Time;durP1;ratioP1;P1;durP2;ratioP2;P2;SDS_P1;SDS_P2;PMS_P1;PMS_P2;Temp;Humidity;BMP_temperature;BMP_pressure;BME280_temperature;BME280_humidity;BME280_pressure;Samples;Min_cycle;Max_cycle;Signal;HPM_P1;HPM_P2
2021/03/10 00:02:24;;;;;;;18.87;12.30;;;4.60;1.00;;;;;;5067864;28;20441;-60
2021/03/10 00:04:50;;;;;;;23.27;15.10;;;4.60;1.00;;;;;;5067872;28;20722;-60
2021/03/10 00:07:15;;;;;;;22.40;12.83;;;4.60;1.00;;;;;;5070720;28;20633;-58
2021/03/10 00:09:41;;;;;;;21.23;14.00;;;4.50;1.00;;;;;;5078771;28;20178;-60
2021/03/10 00:12:07;;;;;;;18.00;12.40;;;4.50;1.00;;;;;;5085993;28;20187;-61
2021/03/10 00:14:32;;;;;;;21.00;12.63;;;5.00;1.00;;;;;;5070001;28;20548;-59
2021/03/10 00:16:58;;;;;;;21.90;14.03;;;4.50;1.00;;;;;;5070233;28;20748;-61
2021/03/10 00:19:24;;;;;;;24.40;14.90;;;4.50;1.00;;;;;;5070631;28;20637;-59
2021/03/10 00:21:49;;;;;;;20.50;12.70;;;4.50;1.00;;;;;;5070570;28;20422;-61
2021/03/10 00:24:15;;;;;;;20.77;13.90;;;4.50;1.00;;;;;;5070393;28;20215;-59
2021/03/10 00:26:41;;;;;;;17.63;12.47;;;4.50;1.00;;;;;;5070036;28;20186;-61
2021/03/10 00:29:07;;;;;;;17.83;12.23;;;4.50;1.00;;;;;;5069515;28;20193;-60
2021/03/10 00:31:33;;;;;;;18.97;13.17;;;3.20;1.00;;;;;;5069696;28;20270;-60
2021/03/10 00:33:59;;;;;;;22.67;13.80;;;4.40;1.00;;;;;;5069875;28;20537;-60
2021/03/10 00:36:24;;;;;;;19.40;12.43;;;4.40;1.00;;;;;;5070199;28;20282;-59
2021/03/10 00:38:50;;;;;;;18.60;12.07;;;;;;;;;;5070377;28;20234;-60
2021/03/10 00:41:16;;;;;;;19.10;13.30;;;4.30;1.00;;;;;;5070383;28;20602;-59
2021/03/10 00:43:41;;;;;;;18.80;11.90;;;4.30;1.00;;;;;;5070096;28;20838;-59
2021/03/10 00:46:07;;;;;;;20.10;13.27;;;4.30;1.00;;;;;;5068714;28;20233;-61
2021/03/10 00:48:32;;;;;;;17.00;12.30;;;7.60;1.00;;;;;;5069747;28;20241;-61
2021/03/10 00:50:58;;;;;;;17.17;12.67;;;4.20;1.00;;;;;;5070132;28;20191;-60
2021/03/10 00:53:23;;;;;;;20.47;13.93;;;4.20;1.00;;;;;;5070148;28;20215;-58
2021/03/10 00:55:49;;;;;;;22.97;13.63;;;4.20;1.00;;;;;;5069999;28;20267;-59
2021/03/10 00:58:14;;;;;;;19.77;13.27;;;4.10;1.00;;;;;;5073702;28;20186;-59
2021/03/10 01:00:40;;;;;;;17.60;12.17;;;4.20;1.00;;;;;;5069488;28;20654;-60
2021/03/10 01:03:06;;;;;;;20.10;13.67;;;4.20;1.00;;;;;;5068812;28;20263;-59
2021/03/10 01:05:31;;;;;;;21.77;12.80;;;4.10;1.00;;;;;;5069917;28;20477;-61
2021/03/10 01:07:57;;;;;;;19.70;12.43;;;4.10;1.00;;;;;;5068988;28;20517;-59
2021/03/10 01:10:22;;;;;;;18.30;13.10;;;4.10;1.00;;;;;;5070110;28;20188;-59
2021/03/10 01:12:49;;;;;;;20.10;13.70;;;4.10;1.00;;;;;;5070141;28;20184;-58
2021/03/10 01:15:17;;;;;;;18.73;12.73;;;4.00;1.00;;;;;;5073728;28;20187;-60
2021/03/10 01:17:45;;;;;;;20.93;13.50;;;4.00;1.00;;;;;;5074083;28;20903;-59
2021/03/10 01:20:13;;;;;;;20.87;13.50;;;3.90;1.00;;;;;;5071935;28;20469;-58
2021/03/10 01:22:39;;;;;;;24.50;14.00;;;4.00;1.00;;;;;;5073577;28;20798;-59
2021/03/10 01:25:05;;;;;;;23.97;14.13;;;4.00;1.00;;;;;;5073751;28;20475;-59
2021/03/10 01:27:32;;;;;;;21.17;13.23;;;4.10;1.00;;;;;;5073473;28;20528;-59
2021/03/10 01:29:57;;;;;;;21.73;14.47;;;4.00;1.00;;;;;;5073773;28;20468;-60
2021/03/10 01:32:23;;;;;;;23.60;13.00;;;;;;;;;;5072831;28;21872;-60
2021/03/10 01:34:49;;;;;;;18.00;13.97;;;3.90;1.00;;;;;;5073279;28;20184;-59
2021/03/10 01:37:15;;;;;;;21.70;13.33;;;4.00;1.00;;;;;;5073723;28;20525;-59
2021/03/10 01:39:41;;;;;;;17.27;13.60;;;3.90;1.00;;;;;;5073198;28;20187;-59
2021/03/10 01:42:07;;;;;;;19.80;14.20;;;4.00;1.00;;;;;;5072351;28;20460;-60
2021/03/10 01:44:33;;;;;;;20.50;13.80;;;3.90;1.00;;;;;;5073179;28;20305;-59
2021/03/10 01:46:59;;;;;;;20.07;13.50;;;3.80;1.00;;;;;;5073609;28;20844;-59
2021/03/10 01:49:25;;;;;;;21.07;13.37;;;3.60;1.00;;;;;;5073255;28;20469;-59
2021/03/10 01:51:50;;;;;;;17.13;12.40;;;3.80;1.00;;;;;;5055475;28;20195;-60
2021/03/10 01:54:16;;;;;;;21.93;14.00;;;3.80;1.00;;;;;;5072596;28;20203;-60
2021/03/10 01:56:42;;;;;;;24.13;14.63;;;3.90;1.00;;;;;;5070685;28;20590;-59
2021/03/10 01:59:09;;;;;;;23.37;14.00;;;3.80;1.00;;;;;;5077439;28;20187;-59
2021/03/10 02:01:35;;;;;;;17.90;13.20;;;3.80;1.00;;;;;;5093460;28;20439;-59
2021/03/10 02:04:05;;;;;;;20.87;13.53;;;3.80;1.00;;;;;;5084346;28;20453;-59
2021/03/10 02:06:42;;;;;;;18.93;13.30;;;4.10;1.00;;;;;;5070677;28;20190;-60
2021/03/10 02:09:39;;;;;;;21.33;13.73;;;3.80;1.00;;;;;;5073039;28;20475;-61
2021/03/10 02:12:58;;;;;;;18.77;12.87;;;3.70;1.00;;;;;;5071362;28;20438;-60
2021/03/10 02:16:08;;;;;;;19.80;13.10;;;3.70;1.00;;;;;;5025915;28;20446;-59
2021/03/10 02:18:39;;;;;;;22.70;14.10;;;3.70;1.00;;;;;;5005889;28;20501;-59
2021/03/10 02:21:18;;;;;;;19.07;13.00;;;3.80;1.00;;;;;;5069245;28;20501;-60
2021/03/10 02:24:14;;;;;;;17.80;12.30;;;3.90;1.00;;;;;;5072331;28;20477;-59
2021/03/10 02:27:08;;;;;;;18.80;12.70;;;3.90;1.00;;;;;;5072470;28;20440;-59
2021/03/10 02:29:37;;;;;;;18.93;13.80;;;3.80;1.00;;;;;;5072545;28;20502;-60
2021/03/10 02:32:04;;;;;;;22.67;14.23;;;3.80;1.00;;;;;;5072032;28;20468;-59
2021/03/10 02:34:31;;;;;;;22.83;13.13;;;3.80;1.00;;;;;;5071983;28;20453;-60
2021/03/10 02:36:58;;;;;;;22.87;13.43;;;3.80;1.00;;;;;;5072329;28;20456;-59
2021/03/10 02:39:25;;;;;;;19.00;12.33;;;3.70;1.00;;;;;;5070753;28;20469;-59
2021/03/10 02:41:52;;;;;;;18.07;12.33;;;3.80;1.00;;;;;;5071268;28;20437;-59
2021/03/10 02:44:20;;;;;;;22.40;14.33;;;3.70;1.00;;;;;;5072161;28;20436;-59
2021/03/10 02:46:46;;;;;;;17.70;12.13;;;3.70;1.00;;;;;;5072410;28;20433;-60
2021/03/10 02:49:14;;;;;;;20.83;14.57;;;3.70;1.00;;;;;;5071602;28;20449;-55
2021/03/10 02:51:43;;;;;;;22.63;13.70;;;3.80;1.00;;;;;;5070131;28;20262;-57
2021/03/10 02:54:12;;;;;;;21.40;13.50;;;4.60;1.00;;;;;;5072112;28;20434;-56
2021/03/10 02:56:37;;;;;;;21.07;13.70;;;3.80;1.00;;;;;;5072216;28;20425;-55
2021/03/10 02:59:03;;;;;;;17.43;12.77;;;3.80;1.00;;;;;;5070587;28;20449;-55
2021/03/10 03:01:28;;;;;;;21.47;13.50;;;3.70;1.00;;;;;;5071599;28;20190;-55
2021/03/10 03:03:54;;;;;;;21.40;13.43;;;3.70;1.00;;;;;;5079437;28;20182;-55
2021/03/10 03:06:19;;;;;;;19.90;14.17;;;3.70;1.00;;;;;;5091539;28;20202;-56
2021/03/10 03:08:47;;;;;;;17.10;12.60;;;3.70;1.00;;;;;;5092308;28;20588;-56
2021/03/10 03:11:13;;;;;;;19.57;12.27;;;3.70;1.00;;;;;;5086644;28;20574;-55
2021/03/10 03:13:39;;;;;;;21.37;13.90;;;3.60;1.00;;;;;;5070663;28;20436;-56
2021/03/10 03:16:07;;;;;;;22.27;14.27;;;3.50;1.00;;;;;;5071502;28;20516;-57
2021/03/10 03:18:33;;;;;;;21.17;13.00;;;3.50;1.00;;;;;;5071681;28;20457;-55
2021/03/10 03:21:01;;;;;;;21.07;13.50;;;3.40;1.00;;;;;;5071405;28;20437;-58
2021/03/10 03:23:28;;;;;;;21.77;13.17;;;3.40;1.00;;;;;;5071014;28;20219;-55
2021/03/10 03:25:55;;;;;;;22.20;13.67;;;3.30;1.00;;;;;;5071257;28;20564;-55
2021/03/10 03:28:26;;;;;;;19.63;13.50;;;3.30;1.00;;;;;;5070509;28;20438;-55
2021/03/10 03:30:53;;;;;;;18.13;12.50;;;3.20;1.00;;;;;;5091798;28;20970;-55
2021/03/10 03:33:23;;;;;;;22.47;13.90;;;3.10;1.00;;;;;;5091279;28;20439;-57
2021/03/10 03:35:52;;;;;;;25.10;15.50;;;3.10;1.00;;;;;;5091612;28;21016;-55
2021/03/10 03:38:19;;;;;;;20.90;13.43;;;3.00;1.00;;;;;;5091699;28;20432;-56
2021/03/10 03:40:48;;;;;;;20.07;14.00;;;2.90;1.00;;;;;;5069955;28;20441;-55
2021/03/10 03:43:14;;;;;;;20.03;12.50;;;3.00;1.00;;;;;;5069731;28;20456;-54
2021/03/10 03:45:39;;;;;;;21.60;13.60;;;3.00;1.00;;;;;;5070787;28;20468;-56
2021/03/10 03:48:05;;;;;;;23.37;14.30;;;3.00;1.00;;;;;;5070965;28;20222;-56
2021/03/10 03:50:31;;;;;;;20.87;13.53;;;0.10;1.00;;;;;;5070378;28;20232;-56
2021/03/10 03:52:57;;;;;;;20.67;14.10;;;3.10;1.00;;;;;;5069891;28;20455;-56
2021/03/10 03:55:23;;;;;;;23.00;13.80;;;3.00;1.00;;;;;;5067794;28;20445;-55
2021/03/10 03:57:49;;;;;;;20.23;14.03;;;2.90;1.00;;;;;;5070857;28;20191;-56
2021/03/10 04:00:18;;;;;;;26.03;15.10;;;3.00;1.00;;;;;;5070584;28;20969;-56
2021/03/10 04:02:47;;;;;;;25.60;14.20;;;;;;;;;;5070238;28;20543;-56
2021/03/10 04:05:14;;;;;;;25.30;14.90;;;3.00;1.00;;;;;;5070956;28;20831;-57
2021/03/10 04:07:47;;;;;;;21.63;12.97;;;3.20;1.00;;;;;;5070213;28;20449;-56
2021/03/10 04:10:13;;;;;;;18.37;12.87;;;;;;;;;;5070989;28;20999;-56
2021/03/10 04:12:39;;;;;;;24.10;14.10;;;3.20;1.00;;;;;;5070136;28;20446;-55
2021/03/10 04:15:05;;;;;;;21.80;13.93;;;3.40;1.00;;;;;;5070648;28;20796;-55
2021/03/10 04:17:30;;;;;;;20.50;14.10;;;3.20;1.00;;;;;;5070471;28;20545;-56
2021/03/10 04:19:56;;;;;;;19.63;12.80;;;3.30;1.00;;;;;;5070436;28;20456;-55
2021/03/10 04:22:21;;;;;;;22.07;14.67;;;3.30;1.00;;;;;;5068836;28;20248;-56
2021/03/10 04:24:47;;;;;;;19.13;13.73;;;3.40;1.00;;;;;;5068086;28;20265;-55
2021/03/10 04:27:15;;;;;;;25.87;15.90;;;3.40;1.00;;;;;;5070381;28;20190;-55
2021/03/10 04:29:41;;;;;;;22.47;13.70;;;3.40;1.00;;;;;;5070353;28;20198;-55
2021/03/10 04:32:06;;;;;;;22.20;13.50;;;3.40;1.00;;;;;;5070354;28;20429;-56
2021/03/10 04:34:32;;;;;;;23.10;14.90;;;3.30;1.00;;;;;;5069989;28;20191;-56
2021/03/10 04:36:57;;;;;;;19.97;13.03;;;3.40;1.00;;;;;;5069556;28;20848;-55
2021/03/10 04:39:23;;;;;;;19.00;12.67;;;3.40;1.00;;;;;;5069856;28;20215;-57
2021/03/10 04:41:48;;;;;;;24.00;14.07;;;3.40;1.00;;;;;;5070716;28;20186;-57
2021/03/10 04:44:14;;;;;;;18.00;13.40;;;3.40;1.00;;;;;;5070453;28;20233;-55
2021/03/10 04:46:40;;;;;;;19.40;12.17;;;;;;;;;;5069986;28;20193;-55
2021/03/10 04:49:09;;;;;;;18.23;13.30;;;3.50;1.00;;;;;;5068851;28;20653;-55
2021/03/10 04:51:34;;;;;;;20.70;12.70;;;3.60;1.00;;;;;;5069730;28;20487;-56
2021/03/10 04:54:00;;;;;;;23.27;14.37;;;3.60;1.00;;;;;;5068483;28;20425;-55
2021/03/10 04:56:25;;;;;;;18.60;12.90;;;3.60;1.00;;;;;;5070201;28;20199;-54
2021/03/10 04:58:51;;;;;;;23.90;13.80;;;3.60;1.00;;;;;;5070158;28;20233;-55
2021/03/10 05:01:16;;;;;;;19.17;13.97;;;3.70;1.00;;;;;;5070039;28;20194;-53
2021/03/10 05:03:42;;;;;;;20.37;13.53;;;;;;;;;;5084509;28;20571;-54
2021/03/10 05:06:08;;;;;;;22.30;13.07;;;3.60;1.00;;;;;;5080802;28;20214;-56
2021/03/10 05:08:34;;;;;;;23.90;14.97;;;3.30;1.00;;;;;;5070077;28;20737;-54
2021/03/10 05:10:59;;;;;;;23.30;13.83;;;3.30;1.00;;;;;;5066420;28;20179;-57
2021/03/10 05:13:25;;;;;;;26.33;14.40;;;3.40;1.00;;;;;;5069786;28;20348;-58
2021/03/10 05:15:50;;;;;;;21.90;14.90;;;3.40;1.00;;;;;;5070043;28;20183;-58
2021/03/10 05:18:16;;;;;;;20.60;13.90;;;3.50;1.00;;;;;;5069842;28;20333;-57
2021/03/10 05:20:41;;;;;;;21.20;15.07;;;3.50;1.00;;;;;;5069703;28;20271;-55
2021/03/10 05:23:07;;;;;;;23.37;13.80;;;3.50;1.00;;;;;;5069562;28;20233;-57
2021/03/10 05:25:32;;;;;;;22.33;14.67;;;3.50;1.00;;;;;;5071065;28;20234;-57
2021/03/10 05:27:58;;;;;;;24.37;15.57;;;3.50;1.00;;;;;;5070732;28;20184;-56
2021/03/10 05:30:23;;;;;;;22.10;14.33;;;3.60;1.00;;;;;;5069680;28;20186;-57
2021/03/10 05:32:49;;;;;;;21.90;13.47;;;3.50;1.00;;;;;;5069899;28;20241;-57
2021/03/10 05:35:14;;;;;;;20.57;13.93;;;3.60;1.00;;;;;;5069536;28;20206;-58
2021/03/10 05:37:41;;;;;;;25.10;16.33;;;3.60;1.00;;;;;;5069645;28;20252;-58
2021/03/10 05:40:07;;;;;;;22.90;15.10;;;3.70;1.00;;;;;;5069368;28;20452;-56
2021/03/10 05:42:33;;;;;;;25.30;15.60;;;3.70;1.00;;;;;;5069312;28;21001;-57
2021/03/10 05:44:59;;;;;;;21.97;13.13;;;3.80;1.00;;;;;;5075153;28;20547;-56
2021/03/10 05:47:25;;;;;;;22.60;14.23;;;3.80;1.00;;;;;;5069593;28;20437;-58
2021/03/10 05:49:50;;;;;;;25.77;15.57;;;3.80;1.00;;;;;;5069556;28;20894;-56
2021/03/10 05:52:17;;;;;;;21.20;14.17;;;3.80;1.00;;;;;;5067642;28;20172;-58
2021/03/10 05:54:44;;;;;;;23.53;14.60;;;3.80;1.00;;;;;;5069141;28;20179;-56
2021/03/10 05:57:10;;;;;;;20.43;13.47;;;3.70;1.00;;;;;;5069447;28;20430;-56
2021/03/10 05:59:36;;;;;;;27.57;14.33;;;3.60;1.00;;;;;;5064900;28;20452;-56
2021/03/10 06:02:02;;;;;;;22.47;14.53;;;3.70;1.00;;;;;;5071145;28;20446;-57
2021/03/10 06:04:39;;;;;;;24.87;15.37;;;3.70;1.00;;;;;;5072514;28;20486;-57
2021/03/10 06:07:17;;;;;;;20.10;13.73;;;3.70;1.00;;;;;;5072688;28;20448;-59
2021/03/10 06:09:42;;;;;;;22.70;14.40;;;3.80;1.00;;;;;;5072861;28;20433;-58
2021/03/10 06:12:08;;;;;;;20.97;13.97;;;3.80;1.00;;;;;;5071908;28;20440;-58
2021/03/10 06:14:34;;;;;;;21.93;14.30;;;3.80;1.00;;;;;;5072490;28;20195;-56
2021/03/10 06:17:08;;;;;;;24.10;13.60;;;3.80;1.00;;;;;;5071354;28;20446;-57
2021/03/10 06:19:48;;;;;;;20.90;13.43;;;3.90;1.00;;;;;;5071771;28;20182;-55
2021/03/10 06:22:14;;;;;;;20.13;13.40;;;4.00;1.00;;;;;;5069191;28;20445;-57
2021/03/10 06:24:40;;;;;;;20.73;14.27;;;4.10;1.00;;;;;;5070396;28;20470;-58
2021/03/10 06:27:06;;;;;;;25.63;13.17;;;4.30;1.00;;;;;;5072429;28;20784;-57
2021/03/10 06:29:32;;;;;;;27.93;14.73;;;4.30;1.00;;;;;;5072860;28;20850;-57
2021/03/10 06:32:09;;;;;;;29.10;14.80;;;4.30;1.00;;;;;;5053805;28;20470;-57
2021/03/10 06:34:48;;;;;;;19.60;13.70;;;4.50;1.00;;;;;;5072386;28;20720;-58
2021/03/10 06:37:26;;;;;;;30.97;17.20;;;4.50;1.00;;;;;;5072549;28;20449;-58
2021/03/10 06:39:51;;;;;;;24.67;15.27;;;4.50;1.00;;;;;;5072278;28;20453;-56
2021/03/10 06:42:18;;;;;;;21.70;14.57;;;4.60;1.00;;;;;;5072061;28;20801;-58
2021/03/10 06:44:52;;;;;;;23.47;14.47;;;4.60;1.00;;;;;;5072092;28;20203;-57
2021/03/10 06:47:18;;;;;;;20.50;13.90;;;4.70;1.00;;;;;;5072304;28;20939;-58
2021/03/10 06:49:52;;;;;;;19.60;14.53;;;4.60;1.00;;;;;;5072300;28;20430;-57
2021/03/10 06:52:18;;;;;;;21.30;13.63;;;4.60;1.00;;;;;;5072169;28;20459;-58
2021/03/10 06:54:57;;;;;;;20.33;13.97;;;4.70;1.00;;;;;;5071937;28;20437;-60
2021/03/10 06:57:24;;;;;;;21.53;13.80;;;4.80;1.00;;;;;;5071758;28;20176;-58
2021/03/10 06:59:57;;;;;;;15.53;11.43;;;4.80;1.00;;;;;;5071531;28;20444;-57
2021/03/10 07:02:30;;;;;;;21.40;13.67;;;4.80;1.00;;;;;;5072015;28;20905;-58
2021/03/10 07:05:00;;;;;;;18.17;11.77;;;4.80;1.00;;;;;;5070267;28;20513;-59
2021/03/10 07:07:28;;;;;;;23.70;13.97;;;4.90;1.00;;;;;;5072003;28;20575;-58
2021/03/10 07:09:54;;;;;;;18.93;13.93;;;5.00;1.00;;;;;;5071639;28;20442;-58
2021/03/10 07:12:22;;;;;;;19.63;13.47;;;5.10;1.00;;;;;;5069956;28;20430;-57
2021/03/10 07:14:48;;;;;;;24.80;14.20;;;5.20;1.00;;;;;;5071725;28;20565;-58
2021/03/10 07:17:16;;;;;;;21.03;13.70;;;5.20;1.00;;;;;;5069918;28;20450;-57
2021/03/10 07:19:42;;;;;;;19.80;14.40;;;5.30;1.00;;;;;;5071788;28;20430;-58
2021/03/10 07:22:32;;;;;;;18.80;13.20;;;5.40;1.00;;;;;;5070666;28;20752;-59
2021/03/10 07:25:14;;;;;;;18.80;12.70;;;5.40;1.00;;;;;;5069945;28;20465;-55
2021/03/10 07:27:53;;;;;;;18.57;12.63;;;5.80;1.00;;;;;;5070984;28;20444;-58
2021/03/10 07:30:19;;;;;;;20.33;13.17;;;5.80;1.00;;;;;;5070341;28;20821;-57
2021/03/10 07:32:45;;;;;;;24.50;14.10;;;5.90;1.00;;;;;;5071299;28;20442;-58
2021/03/10 07:35:12;;;;;;;19.03;13.60;;;5.90;1.00;;;;;;5071039;28;20444;-59
2021/03/10 07:37:52;;;;;;;21.83;13.03;;;5.80;1.00;;;;;;5070929;28;20183;-60
2021/03/10 07:40:18;;;;;;;17.40;12.20;;;5.80;1.00;;;;;;5070455;28;20542;-58
2021/03/10 07:42:56;;;;;;;16.17;12.67;;;5.80;1.00;;;;;;5071267;28;20469;-58
2021/03/10 07:45:42;;;;;;;18.37;12.07;;;5.80;1.00;;;;;;5070702;28;20199;-59
2021/03/10 07:48:08;;;;;;;15.83;11.93;;;6.00;1.00;;;;;;5070682;28;20927;-60
2021/03/10 07:50:43;;;;;;;18.00;12.40;;;6.00;1.00;;;;;;5070585;28;20518;-58
2021/03/10 07:53:09;;;;;;;19.03;12.40;;;6.10;1.00;;;;;;5070877;28;20909;-57
2021/03/10 07:55:45;;;;;;;19.53;13.50;;;6.30;1.00;;;;;;5070806;28;20528;-58
2021/03/10 07:58:12;;;;;;;21.80;14.17;;;6.20;1.00;;;;;;5070391;28;20441;-59
2021/03/10 08:00:39;;;;;;;21.50;13.77;;;6.30;1.00;;;;;;5069328;28;20487;-57
2021/03/10 08:03:05;;;;;;;17.80;12.87;;;6.40;1.00;;;;;;5076811;28;20436;-59
2021/03/10 08:05:30;;;;;;;17.00;13.00;;;7.70;1.00;;;;;;5084641;28;21025;-58
2021/03/10 08:08:32;;;;;;;21.90;13.57;;;6.40;1.00;;;;;;5070381;28;20183;-58
2021/03/10 08:11:15;;;;;;;16.90;12.07;;;6.50;1.00;;;;;;5056277;28;20198;-59
2021/03/10 08:13:42;;;;;;;20.50;13.40;;;6.70;1.00;;;;;;5069010;28;20473;-58
2021/03/10 08:16:10;;;;;;;20.17;14.00;;;6.90;1.00;;;;;;5070303;28;20441;-57
2021/03/10 08:18:36;;;;;;;22.40;14.80;;;;;;;;;;5070351;28;20438;-59
2021/03/10 08:21:13;;;;;;;17.77;13.83;;;7.00;1.00;;;;;;5068623;28;20525;-58
2021/03/10 08:23:39;;;;;;;19.77;13.70;;;7.20;1.00;;;;;;5068894;28;20469;-57
2021/03/10 08:26:07;;;;;;;23.53;15.80;;;7.30;1.00;;;;;;5070266;28;20483;-58
2021/03/10 08:28:35;;;;;;;22.83;14.93;;;7.20;1.00;;;;;;5069613;28;20448;-56
2021/03/10 08:31:07;;;;;;;19.67;13.47;;;7.30;1.00;;;;;;5071206;28;20430;-58
2021/03/10 08:33:48;;;;;;;21.10;14.63;;;7.30;1.00;;;;;;5070156;28;20502;-57
2021/03/10 08:36:14;;;;;;;23.83;14.87;;;7.30;1.00;;;;;;5065245;28;20465;-57
2021/03/10 08:38:40;;;;;;;18.10;13.73;;;7.40;1.00;;;;;;5069799;28;20543;-58
2021/03/10 08:41:07;;;;;;;23.23;15.70;;;7.40;1.00;;;;;;5069833;28;20541;-59
2021/03/10 08:43:33;;;;;;;21.63;15.57;;;7.50;1.00;;;;;;5069411;28;20453;-57
2021/03/10 08:45:59;;;;;;;24.33;16.27;;;7.60;1.00;;;;;;5071650;28;20456;-56
2021/03/10 08:48:31;;;;;;;23.00;15.07;;;7.80;1.00;;;;;;5089344;28;20216;-58
2021/03/10 08:51:04;;;;;;;23.63;15.77;;;7.90;1.00;;;;;;5073146;28;20485;-56
2021/03/10 08:53:33;;;;;;;22.57;15.00;;;7.90;1.00;;;;;;5069970;28;20521;-57
2021/03/10 08:56:07;;;;;;;20.27;14.80;;;8.00;1.00;;;;;;5068482;28;20434;-56
2021/03/10 08:58:33;;;;;;;20.93;14.50;;;8.10;1.00;;;;;;5069805;28;20498;-58
2021/03/10 09:00:58;;;;;;;22.07;15.53;;;8.30;1.00;;;;;;5069460;28;20939;-57
2021/03/10 09:03:24;;;;;;;22.20;15.40;;;8.50;1.00;;;;;;5070034;28;20218;-60
2021/03/10 09:05:51;;;;;;;21.63;15.20;;;8.50;1.00;;;;;;5069875;28;20217;-56
2021/03/10 09:08:24;;;;;;;19.33;13.83;;;8.60;1.00;;;;;;5069896;28;20634;-56
2021/03/10 09:10:51;;;;;;;21.93;13.70;;;8.70;1.00;;;;;;5068586;28;20431;-57
2021/03/10 09:13:23;;;;;;;23.70;16.20;;;8.70;1.00;;;;;;5069433;28;20454;-59
2021/03/10 09:15:49;;;;;;;20.87;15.27;;;8.90;1.00;;;;;;5069898;28;20442;-56
2021/03/10 09:18:18;;;;;;;24.73;16.40;;;8.80;1.00;;;;;;5069826;28;20509;-57
2021/03/10 09:20:45;;;;;;;30.83;18.47;;;8.80;1.00;;;;;;5070110;28;20441;-58
2021/03/10 09:23:11;;;;;;;22.80;16.10;;;8.80;1.00;;;;;;5070706;28;20592;-57
2021/03/10 09:25:41;;;;;;;25.60;16.43;;;8.80;1.00;;;;;;5077434;28;20491;-57
2021/03/10 09:28:10;;;;;;;20.83;15.27;;;8.90;1.00;;;;;;5083122;28;20979;-58
2021/03/10 09:30:38;;;;;;;23.40;15.97;;;9.20;1.00;;;;;;5068224;28;20927;-56
2021/03/10 09:33:04;;;;;;;20.27;14.67;;;9.20;1.00;;;;;;5068999;28;20434;-57
2021/03/10 09:35:35;;;;;;;22.30;14.90;;;9.40;1.00;;;;;;5072349;28;20437;-56
2021/03/10 09:38:09;;;;;;;20.07;15.03;;;9.50;1.00;;;;;;5073599;28;20444;-59
2021/03/10 09:40:44;;;;;;;21.87;14.73;;;9.40;1.00;;;;;;5072846;28;20445;-59
2021/03/10 09:43:14;;;;;;;18.17;13.60;;;9.30;1.00;;;;;;5073029;28;21002;-56
2021/03/10 09:45:40;;;;;;;20.03;14.30;;;9.60;1.00;;;;;;5070751;28;21078;-57
2021/03/10 09:48:07;;;;;;;19.00;14.20;;;10.00;1.00;;;;;;5072941;28;20542;-57
2021/03/10 09:50:39;;;;;;;16.23;12.00;;;10.10;1.00;;;;;;5072837;28;20549;-58
2021/03/10 09:53:15;;;;;;;14.93;10.73;;;10.30;1.00;;;;;;5073589;28;20439;-57
2021/03/10 09:55:41;;;;;;;15.83;11.83;;;10.30;1.00;;;;;;5072762;28;20448;-57
2021/03/10 09:58:09;;;;;;;17.30;13.20;;;10.20;1.00;;;;;;5071774;28;20447;-57
2021/03/10 10:00:36;;;;;;;17.77;12.43;;;10.00;1.00;;;;;;5072419;28;20448;-58
2021/03/10 10:03:02;;;;;;;17.43;12.83;;;9.90;1.00;;;;;;5073317;28;20443;-57
2021/03/10 10:05:34;;;;;;;15.10;12.40;;;10.00;1.00;;;;;;5072263;28;20456;-56
2021/03/10 10:08:00;;;;;;;20.63;13.20;;;10.40;1.00;;;;;;5078312;28;20460;-58
2021/03/10 10:10:26;;;;;;;17.27;13.70;;;10.50;1.00;;;;;;5087121;28;20988;-57
2021/03/10 10:12:54;;;;;;;14.20;11.67;;;10.80;1.00;;;;;;5072915;28;20531;-59
2021/03/10 10:15:22;;;;;;;13.40;10.60;;;10.70;1.00;;;;;;5072514;28;20186;-60
2021/03/10 10:17:51;;;;;;;13.57;11.00;;;10.90;1.00;;;;;;5071188;28;20542;-56
2021/03/10 10:20:19;;;;;;;17.43;11.93;;;11.00;1.00;;;;;;5072480;28;20787;-57
2021/03/10 10:22:45;;;;;;;16.00;11.00;;;10.80;1.00;;;;;;5072098;28;20497;-58
2021/03/10 10:25:13;;;;;;;19.03;13.90;;;11.00;1.00;;;;;;5072386;28;20560;-57
2021/03/10 10:27:40;;;;;;;18.63;12.83;;;11.10;1.00;;;;;;5071984;28;20539;-58
2021/03/10 10:30:07;;;;;;;15.07;12.00;;;11.20;1.00;;;;;;5072247;28;20463;-58
2021/03/10 10:32:33;;;;;;;18.37;12.63;;;11.10;1.00;;;;;;5072609;28;20833;-56
2021/03/10 10:34:59;;;;;;;16.77;11.80;;;11.00;1.00;;;;;;5069825;28;20441;-55
2021/03/10 10:37:24;;;;;;;14.40;12.30;;;10.90;1.00;;;;;;5085880;28;20541;-56
2021/03/10 10:39:50;;;;;;;17.53;12.80;;;10.80;1.00;;;;;;5091055;28;20197;-56
2021/03/10 10:42:16;;;;;;;18.00;13.57;;;11.00;1.00;;;;;;5092837;28;20188;-57
2021/03/10 10:44:42;;;;;;;19.70;13.27;;;11.10;1.00;;;;;;5081664;28;20257;-57
2021/03/10 10:47:08;;;;;;;17.70;13.40;;;11.20;1.00;;;;;;5071453;28;20446;-57
2021/03/10 10:49:33;;;;;;;15.97;12.90;;;11.40;1.00;;;;;;5072255;28;20191;-57
2021/03/10 10:51:59;;;;;;;16.67;13.17;;;11.70;1.00;;;;;;5072095;28;20201;-57
2021/03/10 10:54:25;;;;;;;19.53;12.70;;;15.00;1.00;;;;;;5071968;28;20185;-58
2021/03/10 10:56:51;;;;;;;18.40;13.43;;;11.90;1.00;;;;;;5069754;28;20259;-60
2021/03/10 10:59:17;;;;;;;17.77;13.60;;;11.80;1.00;;;;;;5072109;28;20244;-58
2021/03/10 11:01:43;;;;;;;20.43;13.17;;;11.80;1.00;;;;;;5071142;28;20441;-58
2021/03/10 11:04:09;;;;;;;23.60;12.83;;;12.20;1.00;;;;;;5070143;28;20448;-56
2021/03/10 11:06:34;;;;;;;20.10;14.17;;;12.30;1.00;;;;;;5072119;28;20472;-58
2021/03/10 11:09:00;;;;;;;19.27;13.40;;;12.30;1.00;;;;;;5071185;28;20436;-58
2021/03/10 11:11:25;;;;;;;18.17;13.70;;;12.20;1.00;;;;;;5069539;28;20276;-57
2021/03/10 11:13:51;;;;;;;18.50;14.10;;;12.10;1.00;;;;;;5070301;28;20288;-57
2021/03/10 11:16:17;;;;;;;20.67;15.40;;;12.00;1.00;;;;;;5071192;28;20707;-57
2021/03/10 11:18:42;;;;;;;16.17;14.30;;;11.70;1.00;;;;;;5071346;28;20179;-56
2021/03/10 11:21:08;;;;;;;19.73;15.10;;;11.40;1.00;;;;;;5071230;28;20560;-56
2021/03/10 11:23:33;;;;;;;17.20;14.40;;;11.10;1.00;;;;;;5070131;28;20227;-56
2021/03/10 11:26:01;;;;;;;21.27;15.10;;;11.70;1.00;;;;;;5070660;28;20207;-57
2021/03/10 11:28:26;;;;;;;19.87;13.93;;;11.90;1.00;;;;;;5071370;28;20172;-57
2021/03/10 11:30:52;;;;;;;17.00;14.17;;;11.90;1.00;;;;;;5079776;28;20443;-57
2021/03/10 11:33:17;;;;;;;21.17;15.63;;;11.90;1.00;;;;;;5091150;28;20316;-57
2021/03/10 11:35:43;;;;;;;17.67;14.60;;;12.20;1.00;;;;;;5090349;28;20197;-57
2021/03/10 11:38:09;;;;;;;19.10;14.17;;;12.50;1.00;;;;;;5072591;28;20644;-56
2021/03/10 11:40:36;;;;;;;17.60;14.67;;;12.80;1.00;;;;;;5071057;28;20513;-60
2021/03/10 11:43:01;;;;;;;21.10;16.87;;;12.70;1.00;;;;;;5071541;28;20273;-58
2021/03/10 11:45:27;;;;;;;19.73;14.97;;;12.60;1.00;;;;;;5071213;28;21101;-59
2021/03/10 11:47:52;;;;;;;17.83;14.00;;;12.60;1.00;;;;;;5073582;28;20183;-59
2021/03/10 11:50:18;;;;;;;18.77;14.63;;;12.50;1.00;;;;;;5070684;28;20175;-60
2021/03/10 11:52:45;;;;;;;18.30;14.50;;;12.60;1.00;;;;;;5070573;28;20694;-61
2021/03/10 11:55:13;;;;;;;16.80;13.27;;;12.90;1.00;;;;;;5073822;28;20175;-59
2021/03/10 11:57:38;;;;;;;17.60;14.20;;;12.90;1.00;;;;;;5073710;28;20456;-60
2021/03/10 12:00:05;;;;;;;18.00;13.90;;;12.70;1.00;;;;;;5076121;28;20436;-59
2021/03/10 12:02:31;;;;;;;18.10;13.83;;;12.70;1.00;;;;;;5070477;28;20205;-59
2021/03/10 12:04:56;;;;;;;19.27;13.97;;;12.60;1.00;;;;;;5070728;28;20461;-58
2021/03/10 12:07:23;;;;;;;19.23;13.43;;;12.40;1.00;;;;;;5070775;28;20172;-59
2021/03/10 12:09:48;;;;;;;17.03;13.67;;;12.20;1.00;;;;;;5073937;28;20190;-61
2021/03/10 12:12:14;;;;;;;20.10;14.00;;;12.10;1.00;;;;;;5070317;28;20432;-59
2021/03/10 12:14:40;;;;;;;20.37;14.80;;;12.10;1.00;;;;;;5067891;28;20211;-59
2021/03/10 12:17:05;;;;;;;17.30;13.50;;;12.00;1.00;;;;;;5069608;28;20194;-59
2021/03/10 12:19:32;;;;;;;18.50;14.10;;;12.00;1.00;;;;;;5069482;28;20182;-58
2021/03/10 12:21:58;;;;;;;18.03;13.50;;;12.00;1.00;;;;;;5069835;28;20182;-58
2021/03/10 12:24:23;;;;;;;18.27;14.40;;;11.90;1.00;;;;;;5070470;28;20519;-59
2021/03/10 12:26:49;;;;;;;19.80;14.07;;;11.90;1.00;;;;;;5074847;28;21048;-59
2021/03/10 12:29:15;;;;;;;15.90;13.33;;;11.80;1.00;;;;;;5076492;28;20509;-59
2021/03/10 12:31:41;;;;;;;20.70;13.97;;;11.80;1.00;;;;;;5069656;28;20210;-60
2021/03/10 12:34:06;;;;;;;20.20;14.73;;;11.80;1.00;;;;;;5071163;28;20218;-58
2021/03/10 12:36:32;;;;;;;19.73;13.67;;;12.10;1.00;;;;;;5070843;28;20190;-61
2021/03/10 12:38:57;;;;;;;16.57;12.70;;;12.30;1.00;;;;;;5091196;28;20188;-58
2021/03/10 12:41:23;;;;;;;17.63;14.03;;;12.90;1.00;;;;;;5077470;28;20224;-58
2021/03/10 12:43:50;;;;;;;17.30;13.63;;;12.90;1.00;;;;;;5077773;28;20185;-59
2021/03/10 12:46:15;;;;;;;15.37;13.03;;;13.10;1.00;;;;;;5083082;28;20229;-58
2021/03/10 12:48:41;;;;;;;16.00;13.57;;;13.30;1.00;;;;;;5070303;28;20785;-60
2021/03/10 12:51:07;;;;;;;18.00;13.93;;;13.50;1.00;;;;;;5077480;28;20197;-58